Cape Texel — V7RC4 — position and weather

sailwx.info

Track history (hours):
 
Tides and Currents Weather Stations Pressure Air Temp Water Temp Dewpoint Dewpoint Depression Visibility Wind Speed Wind Dir Waves Ship Positions

Cape Texel

Last reported at 2017-Sep-09 06:50 UTC. Time now 2017-Sep-23 13:01 UTC.
Position N 04°21' W 002°04'.
Warning: this ship's position is 14 days out of date.

Length 228 m; draft 12.1 m.

Type: Tanker. MMSI: 538090383.

Date/timePositionNaut miles runAvg speedWind from/ knotsBaromVisibWave heightAir tempDewpointWater temp
2017-Sep-09 06:50N 04°21' W 002°04'1112.8
2017-Sep-09 05:57N 04°25' W 001°53'612.8
2017-Sep-09 05:29N 04°28' W 001°47'612.7
2017-Sep-09 05:00N 04°30' W 001°42'612.7
2017-Sep-09 04:30N 04°32' W 001°36'612.7
2017-Sep-09 03:59N 04°35' W 001°30'612.7
2017-Sep-09 03:29N 04°38' W 001°24'612.5
2017-Sep-09 03:00N 04°39' W 001°18'712.6
2017-Sep-09 02:28N 04°42' W 001°12'612.5
2017-Sep-09 01:59N 04°44' W 001°06'612.6
2017-Sep-09 01:29N 04°46' W 001°00'612.7
2017-Sep-09 00:59N 04°49' W 000°54'4812.9
2017-Sep-08 21:14N 05°06' W 000°09'712.9
2017-Sep-08 20:40N 05°09' W 000°02'212.9
2017-Sep-08 20:31N 05°10' W 000°00'713.0
2017-Sep-08 20:00N 05°12' E 000°06'813.0
2017-Sep-08 19:26N 05°15' E 000°13'513.0
2017-Sep-08 19:00N 05°17' E 000°18'712.9
2017-Sep-08 18:28N 05°20' E 000°24'612.9
2017-Sep-08 18:01N 05°22' E 000°30'612.8
2017-Sep-08 17:31N 05°24' E 000°36'  
Track history (hours):
 
Tides and Currents Weather Stations Pressure Air Temp Water Temp Dewpoint Dewpoint Depression Visibility Wind Speed Wind Dir Waves Ship Positions

Cape Texel

Last reported at 2017-Sep-09 06:50 UTC. Time now 2017-Sep-23 13:01 UTC.
Position N 04°21' W 002°04'.
Warning: this ship's position is 14 days out of date.

Length 228 m; draft 12.1 m.

Type: Tanker. MMSI: 538090383.

Date/timePositionNaut miles runAvg speedWind from/ knotsBaromVisibWave heightAir tempDewpointWater temp
2017-Sep-09 06:50N 04°21' W 002°04'1112.8
2017-Sep-09 05:57N 04°25' W 001°53'612.8
2017-Sep-09 05:29N 04°28' W 001°47'612.7
2017-Sep-09 05:00N 04°30' W 001°42'612.7
2017-Sep-09 04:30N 04°32' W 001°36'612.7
2017-Sep-09 03:59N 04°35' W 001°30'612.7
2017-Sep-09 03:29N 04°38' W 001°24'612.5
2017-Sep-09 03:00N 04°39' W 001°18'712.6
2017-Sep-09 02:28N 04°42' W 001°12'612.5
2017-Sep-09 01:59N 04°44' W 001°06'612.6
2017-Sep-09 01:29N 04°46' W 001°00'612.7
2017-Sep-09 00:59N 04°49' W 000°54'4812.9
2017-Sep-08 21:14N 05°06' W 000°09'712.9
2017-Sep-08 20:40N 05°09' W 000°02'212.9
2017-Sep-08 20:31N 05°10' W 000°00'713.0
2017-Sep-08 20:00N 05°12' E 000°06'813.0
2017-Sep-08 19:26N 05°15' E 000°13'513.0
2017-Sep-08 19:00N 05°17' E 000°18'712.9
2017-Sep-08 18:28N 05°20' E 000°24'612.9
2017-Sep-08 18:01N 05°22' E 000°30'612.8
2017-Sep-08 17:31N 05°24' E 000°36'  

Dump ship's entire track history